sensor_id;sensor_type;location;lat;lon;timestamp;pressure;altitude;pressure_sealevel;temperature;humidity
40946;BME280;55635;50.264;11.918;2023-01-29T00:01:16;96666.00;;;-0.97;66.06
40946;BME280;55635;50.264;11.918;2023-01-29T00:03:57;96670.81;;;-1.05;66.60
40946;BME280;55635;50.264;11.918;2023-01-29T00:06:39;96676.22;;;-0.94;66.56
40946;BME280;55635;50.264;11.918;2023-01-29T00:09:20;96669.13;;;-1.06;66.26
40946;BME280;55635;50.264;11.918;2023-01-29T00:12:01;96666.88;;;-1.13;67.17
40946;BME280;55635;50.264;11.918;2023-01-29T00:14:43;96670.63;;;-1.17;67.69
40946;BME280;55635;50.264;11.918;2023-01-29T00:17:23;96653.34;;;-1.33;68.12
40946;BME280;55635;50.264;11.918;2023-01-29T00:20:05;96651.06;;;-1.24;67.35
40946;BME280;55635;50.264;11.918;2023-01-29T00:22:46;96652.94;;;-1.26;67.12
40946;BME280;55635;50.264;11.918;2023-01-29T00:25:28;96647.84;;;-1.43;67.27
40946;BME280;55635;50.264;11.918;2023-01-29T00:28:09;96659.91;;;-1.26;67.09
40946;BME280;55635;50.264;11.918;2023-01-29T00:30:51;96658.34;;;-1.15;67.16
40946;BME280;55635;50.264;11.918;2023-01-29T00:33:32;96644.63;;;-1.32;66.99
40946;BME280;55635;50.264;11.918;2023-01-29T00:36:15;96630.09;;;-1.50;67.24
40946;BME280;55635;50.264;11.918;2023-01-29T00:38:58;96643.44;;;-1.27;66.23
40946;BME280;55635;50.264;11.918;2023-01-29T00:41:40;96651.75;;;-1.20;66.61
40946;BME280;55635;50.264;11.918;2023-01-29T00:44:40;96641.00;;;-1.00;65.66
40946;BME280;55635;50.264;11.918;2023-01-29T00:47:38;96619.16;;;-0.97;65.81
40946;BME280;55635;50.264;11.918;2023-01-29T00:50:20;96624.84;;;-1.05;66.68
40946;BME280;55635;50.264;11.918;2023-01-29T00:53:01;96609.72;;;-1.28;66.79
40946;BME280;55635;50.264;11.918;2023-01-29T00:55:43;96608.72;;;-1.26;65.78
40946;BME280;55635;50.264;11.918;2023-01-29T00:58:25;96613.31;;;-1.01;65.54
40946;BME280;55635;50.264;11.918;2023-01-29T01:01:08;96618.97;;;-1.08;66.06
40946;BME280;55635;50.264;11.918;2023-01-29T01:03:50;96617.22;;;-1.08;66.86
40946;BME280;55635;50.264;11.918;2023-01-29T01:06:32;96617.22;;;-1.08;66.43
40946;BME280;55635;50.264;11.918;2023-01-29T01:09:13;96610.63;;;-0.99;66.21
40946;BME280;55635;50.264;11.918;2023-01-29T01:12:12;96619.63;;;-0.91;65.88
40946;BME280;55635;50.264;11.918;2023-01-29T01:14:54;96615.16;;;-1.03;66.08
40946;BME280;55635;50.264;11.918;2023-01-29T01:17:35;96625.38;;;-1.00;66.73
40946;BME280;55635;50.264;11.918;2023-01-29T01:20:16;96614.25;;;-1.02;66.89
40946;BME280;55635;50.264;11.918;2023-01-29T01:22:58;96614.31;;;-1.18;67.42
40946;BME280;55635;50.264;11.918;2023-01-29T01:25:39;96617.28;;;-1.10;67.70
40946;BME280;55635;50.264;11.918;2023-01-29T01:28:20;96617.56;;;-1.14;67.73
40946;BME280;55635;50.264;11.918;2023-01-29T01:31:09;96590.28;;;-1.37;67.31
40946;BME280;55635;50.264;11.918;2023-01-29T01:33:51;96616.94;;;-1.33;67.49
40946;BME280;55635;50.264;11.918;2023-01-29T01:36:34;96619.16;;;-1.41;67.71
40946;BME280;55635;50.264;11.918;2023-01-29T01:39:15;96626.81;;;-1.24;67.12
40946;BME280;55635;50.264;11.918;2023-01-29T01:41:56;96623.44;;;-1.11;66.59
40946;BME280;55635;50.264;11.918;2023-01-29T01:45:03;96611.47;;;-0.99;66.01
40946;BME280;55635;50.264;11.918;2023-01-29T01:47:58;96608.69;;;-0.96;65.68
40946;BME280;55635;50.264;11.918;2023-01-29T01:50:58;96623.56;;;-0.84;65.75
40946;BME280;55635;50.264;11.918;2023-01-29T01:54:10;96624.47;;;-0.85;66.14
40946;BME280;55635;50.264;11.918;2023-01-29T01:56:55;96600.13;;;-0.84;66.01
40946;BME280;55635;50.264;11.918;2023-01-29T01:59:58;96609.22;;;-1.05;67.02
40946;BME280;55635;50.264;11.918;2023-01-29T02:02:54;96607.09;;;-1.28;68.44
40946;BME280;55635;50.264;11.918;2023-01-29T02:05:56;96611.41;;;-1.13;68.06
40946;BME280;55635;50.264;11.918;2023-01-29T02:09:09;96599.44;;;-1.16;68.14
40946;BME280;55635;50.264;11.918;2023-01-29T02:12:13;96602.72;;;-1.42;68.62
40946;BME280;55635;50.264;11.918;2023-01-29T02:14:54;96611.41;;;-1.57;68.72
40946;BME280;55635;50.264;11.918;2023-01-29T02:17:36;96614.75;;;-1.55;69.70
40946;BME280;55635;50.264;11.918;2023-01-29T02:20:28;96604.69;;;-1.61;69.87
40946;BME280;55635;50.264;11.918;2023-01-29T02:30:16;96614.50;;;-1.50;70.78
40946;BME280;55635;50.264;11.918;2023-01-29T02:36:53;96616.78;;;-1.30;69.07
40946;BME280;55635;50.264;11.918;2023-01-29T02:57:33;96596.44;;;-2.61;73.42
40946;BME280;55635;50.264;11.918;2023-01-29T03:00:20;96600.59;;;-2.75;74.68
40946;BME280;55635;50.264;11.918;2023-01-29T03:03:20;96589.38;;;-2.59;73.95
40946;BME280;55635;50.264;11.918;2023-01-29T03:09:10;96604.88;;;-1.80;71.52
40946;BME280;55635;50.264;11.918;2023-01-29T03:11:57;96593.03;;;-2.31;72.44
40946;BME280;55635;50.264;11.918;2023-01-29T03:14:47;96602.09;;;-2.70;73.60
40946;BME280;55635;50.264;11.918;2023-01-29T03:18:08;96613.69;;;-2.29;73.15
40946;BME280;55635;50.264;11.918;2023-01-29T03:20:54;96597.19;;;-2.44;73.40
40946;BME280;55635;50.264;11.918;2023-01-29T03:23:39;96609.34;;;-2.13;73.00
40946;BME280;55635;50.264;11.918;2023-01-29T03:26:41;96621.59;;;-1.84;71.42
40946;BME280;55635;50.264;11.918;2023-01-29T03:29:48;96631.13;;;-1.69;69.93
40946;BME280;55635;50.264;11.918;2023-01-29T03:33:14;96631.13;;;-1.69;70.22
40946;BME280;55635;50.264;11.918;2023-01-29T03:36:07;96618.56;;;-1.76;71.29
40946;BME280;55635;50.264;11.918;2023-01-29T03:38:50;96628.78;;;-1.89;71.82
40946;BME280;55635;50.264;11.918;2023-01-29T03:41:36;96614.22;;;-2.07;71.45
40946;BME280;55635;50.264;11.918;2023-01-29T03:50:29;96611.25;;;-2.63;73.37
40946;BME280;55635;50.264;11.918;2023-01-29T03:59:37;96642.66;;;-2.52;73.84
40946;BME280;55635;50.264;11.918;2023-01-29T04:02:37;96640.88;;;-2.03;72.35
40946;BME280;55635;50.264;11.918;2023-01-29T04:05:30;96632.72;;;-1.82;72.21
40946;BME280;55635;50.264;11.918;2023-01-29T04:11:42;96609.69;;;-2.19;72.17
40946;BME280;55635;50.264;11.918;2023-01-29T04:14:24;96618.00;;;-2.12;72.01
40946;BME280;55635;50.264;11.918;2023-01-29T04:17:15;96636.56;;;-2.20;73.09
40946;BME280;55635;50.264;11.918;2023-01-29T04:20:16;96629.38;;;-2.15;73.25
40946;BME280;55635;50.264;11.918;2023-01-29T04:22:59;96635.78;;;-2.05;73.13
40946;BME280;55635;50.264;11.918;2023-01-29T04:25:45;96624.25;;;-2.01;72.17
40946;BME280;55635;50.264;11.918;2023-01-29T04:32:28;96610.53;;;-2.34;73.45
40946;BME280;55635;50.264;11.918;2023-01-29T04:38:16;96612.16;;;-2.64;75.10
40946;BME280;55635;50.264;11.918;2023-01-29T04:41:30;96616.56;;;-2.34;74.49
40946;BME280;55635;50.264;11.918;2023-01-29T04:44:34;96609.94;;;-2.39;74.24
40946;BME280;55635;50.264;11.918;2023-01-29T04:47:59;96607.19;;;-2.36;74.25
40946;BME280;55635;50.264;11.918;2023-01-29T04:51:24;96598.91;;;-2.27;74.33
40946;BME280;55635;50.264;11.918;2023-01-29T05:00:27;96591.41;;;-2.64;75.17
40946;BME280;55635;50.264;11.918;2023-01-29T05:03:13;96579.78;;;-2.90;76.33
40946;BME280;55635;50.264;11.918;2023-01-29T05:05:56;96589.34;;;-2.75;76.44
40946;BME280;55635;50.264;11.918;2023-01-29T05:08:38;96588.97;;;-2.67;76.11
40946;BME280;55635;50.264;11.918;2023-01-29T05:11:21;96580.28;;;-2.51;75.25
40946;BME280;55635;50.264;11.918;2023-01-29T05:14:06;96552.56;;;-2.82;75.92
40946;BME280;55635;50.264;11.918;2023-01-29T05:16:52;96558.56;;;-2.81;76.18
40946;BME280;55635;50.264;11.918;2023-01-29T05:19:35;96561.88;;;-2.46;75.21
40946;BME280;55635;50.264;11.918;2023-01-29T05:22:17;96553.84;;;-2.57;74.82
40946;BME280;55635;50.264;11.918;2023-01-29T05:25:02;96549.22;;;-2.21;74.06
40946;BME280;55635;50.264;11.918;2023-01-29T05:27:44;96542.94;;;-2.33;73.25
40946;BME280;55635;50.264;11.918;2023-01-29T05:30:44;96538.44;;;-2.60;74.83
40946;BME280;55635;50.264;11.918;2023-01-29T05:33:28;96534.97;;;-2.77;75.63
40946;BME280;55635;50.264;11.918;2023-01-29T05:36:10;96538.34;;;-2.43;75.00
40946;BME280;55635;50.264;11.918;2023-01-29T05:38:51;96551.16;;;-2.25;73.53
40946;BME280;55635;50.264;11.918;2023-01-29T05:41:32;96549.44;;;-2.10;72.78
40946;BME280;55635;50.264;11.918;2023-01-29T05:44:13;96551.19;;;-2.10;72.65
40946;BME280;55635;50.264;11.918;2023-01-29T05:46:54;96544.84;;;-2.05;72.37
40946;BME280;55635;50.264;11.918;2023-01-29T05:49:36;96550.00;;;-1.89;72.26
40946;BME280;55635;50.264;11.918;2023-01-29T05:52:17;96558.25;;;-2.12;73.09
40946;BME280;55635;50.264;11.918;2023-01-29T05:54:58;96537.41;;;-2.27;73.62
40946;BME280;55635;50.264;11.918;2023-01-29T05:57:40;96553.38;;;-2.03;72.34
40946;BME280;55635;50.264;11.918;2023-01-29T06:00:21;96547.75;;;-2.11;72.95
40946;BME280;55635;50.264;11.918;2023-01-29T06:03:02;96522.13;;;-2.17;72.41
40946;BME280;55635;50.264;11.918;2023-01-29T06:05:44;96556.06;;;-2.20;72.29
40946;BME280;55635;50.264;11.918;2023-01-29T06:08:25;96550.81;;;-2.18;72.61
40946;BME280;55635;50.264;11.918;2023-01-29T06:11:08;96554.91;;;-1.99;72.45
40946;BME280;55635;50.264;11.918;2023-01-29T06:13:50;96555.72;;;-1.98;72.69
40946;BME280;55635;50.264;11.918;2023-01-29T06:16:31;96563.59;;;-1.84;72.08
40946;BME280;55635;50.264;11.918;2023-01-29T06:19:13;96547.53;;;-2.06;72.63
40946;BME280;55635;50.264;11.918;2023-01-29T06:21:54;96553.69;;;-1.78;71.98
40946;BME280;55635;50.264;11.918;2023-01-29T06:24:35;96539.06;;;-1.80;71.51
40946;BME280;55635;50.264;11.918;2023-01-29T06:27:17;96551.97;;;-1.63;71.49
40946;BME280;55635;50.264;11.918;2023-01-29T06:29:58;96551.78;;;-1.60;71.35
40946;BME280;55635;50.264;11.918;2023-01-29T06:32:39;96539.72;;;-1.91;71.90
40946;BME280;55635;50.264;11.918;2023-01-29T06:35:20;96550.59;;;-1.84;71.65
40946;BME280;55635;50.264;11.918;2023-01-29T06:38:02;96556.38;;;-1.95;72.09
40946;BME280;55635;50.264;11.918;2023-01-29T06:40:43;96571.88;;;-1.78;71.89
40946;BME280;55635;50.264;11.918;2023-01-29T06:43:24;96569.31;;;-1.63;71.18
40946;BME280;55635;50.264;11.918;2023-01-29T06:46:07;96554.28;;;-1.88;71.77
40946;BME280;55635;50.264;11.918;2023-01-29T06:48:48;96564.19;;;-1.95;72.08
40946;BME280;55635;50.264;11.918;2023-01-29T06:51:30;96557.41;;;-2.13;73.45
40946;BME280;55635;50.264;11.918;2023-01-29T06:54:11;96552.56;;;-2.35;73.53
40946;BME280;55635;50.264;11.918;2023-01-29T06:56:52;96561.63;;;-2.42;74.12
40946;BME280;55635;50.264;11.918;2023-01-29T06:59:34;96560.84;;;-2.44;74.59
40946;BME280;55635;50.264;11.918;2023-01-29T07:02:15;96561.13;;;-2.48;74.50
40946;BME280;55635;50.264;11.918;2023-01-29T07:04:56;96566.97;;;-2.60;74.78
40946;BME280;55635;50.264;11.918;2023-01-29T07:07:37;96576.19;;;-2.39;74.46
40946;BME280;55635;50.264;11.918;2023-01-29T07:10:19;96576.75;;;-2.65;74.32
40946;BME280;55635;50.264;11.918;2023-01-29T07:13:00;96566.50;;;-2.36;73.88
40946;BME280;55635;50.264;11.918;2023-01-29T07:15:42;96591.00;;;-2.26;73.46
40946;BME280;55635;50.264;11.918;2023-01-29T07:18:24;96602.47;;;-2.14;73.15
40946;BME280;55635;50.264;11.918;2023-01-29T07:21:06;96592.25;;;-2.01;72.47
40946;BME280;55635;50.264;11.918;2023-01-29T07:23:47;96602.13;;;-2.08;72.71
40946;BME280;55635;50.264;11.918;2023-01-29T07:26:28;96605.22;;;-1.86;72.12
40946;BME280;55635;50.264;11.918;2023-01-29T07:29:09;96592.19;;;-2.15;72.73
40946;BME280;55635;50.264;11.918;2023-01-29T07:31:50;96589.31;;;-2.11;72.87
40946;BME280;55635;50.264;11.918;2023-01-29T07:34:31;96582.97;;;-2.21;72.86
40946;BME280;55635;50.264;11.918;2023-01-29T07:37:12;96576.09;;;-2.22;72.80
40946;BME280;55635;50.264;11.918;2023-01-29T07:39:54;96583.56;;;-2.32;72.97
40946;BME280;55635;50.264;11.918;2023-01-29T07:42:36;96569.81;;;-2.98;75.07
40946;BME280;55635;50.264;11.918;2023-01-29T07:45:17;96567.03;;;-3.10;76.17
40946;BME280;55635;50.264;11.918;2023-01-29T07:47:58;96563.94;;;-3.34;77.10
40946;BME280;55635;50.264;11.918;2023-01-29T07:50:39;96573.47;;;-2.85;75.73
40946;BME280;55635;50.264;11.918;2023-01-29T07:53:21;96583.66;;;-2.33;74.08
40946;BME280;55635;50.264;11.918;2023-01-29T07:56:02;96570.00;;;-2.05;72.30
40946;BME280;55635;50.264;11.918;2023-01-29T07:58:44;96590.25;;;-2.12;72.89
40946;BME280;55635;50.264;11.918;2023-01-29T08:01:25;96587.81;;;-1.84;72.01
40946;BME280;55635;50.264;11.918;2023-01-29T08:04:06;96595.59;;;-1.38;70.46
40946;BME280;55635;50.264;11.918;2023-01-29T08:06:47;96605.22;;;-1.11;69.80
40946;BME280;55635;50.264;11.918;2023-01-29T08:09:28;96605.06;;;-0.79;68.40
40946;BME280;55635;50.264;11.918;2023-01-29T08:12:09;96606.84;;;-0.37;67.69
40946;BME280;55635;50.264;11.918;2023-01-29T08:14:50;96608.19;;;-0.18;66.53
40946;BME280;55635;50.264;11.918;2023-01-29T08:17:31;96625.47;;;0.12;65.76
40946;BME280;55635;50.264;11.918;2023-01-29T08:20:13;96633.03;;;0.02;65.56
40946;BME280;55635;50.264;11.918;2023-01-29T08:23:08;96624.59;;;-0.16;65.40
40946;BME280;55635;50.264;11.918;2023-01-29T08:25:49;96611.28;;;-0.39;65.34
40946;BME280;55635;50.264;11.918;2023-01-29T08:28:31;96633.25;;;-0.29;64.91
40946;BME280;55635;50.264;11.918;2023-01-29T08:31:17;96632.22;;;-0.41;64.90
40946;BME280;55635;50.264;11.918;2023-01-29T08:34:00;96632.53;;;0.10;64.66
40946;BME280;55635;50.264;11.918;2023-01-29T08:36:41;96618.28;;;0.15;63.87
40946;BME280;55635;50.264;11.918;2023-01-29T08:39:22;96623.88;;;0.09;62.95
40946;BME280;55635;50.264;11.918;2023-01-29T08:42:03;96627.03;;;0.14;63.13
40946;BME280;55635;50.264;11.918;2023-01-29T08:44:44;96634.81;;;0.28;63.05
40946;BME280;55635;50.264;11.918;2023-01-29T08:47:26;96631.06;;;0.32;62.81
40946;BME280;55635;50.264;11.918;2023-01-29T08:50:07;96612.91;;;0.04;62.85
40946;BME280;55635;50.264;11.918;2023-01-29T08:52:49;96611.38;;;-0.13;63.76
40946;BME280;55635;50.264;11.918;2023-01-29T08:55:30;96603.78;;;-0.03;62.99
40946;BME280;55635;50.264;11.918;2023-01-29T08:58:11;96589.69;;;-0.27;64.02
40946;BME280;55635;50.264;11.918;2023-01-29T09:00:52;96598.28;;;-0.82;65.85
40946;BME280;55635;50.264;11.918;2023-01-29T09:03:33;96600.88;;;-0.96;66.33
40946;BME280;55635;50.264;11.918;2023-01-29T09:06:14;96615.00;;;-0.29;65.73
40946;BME280;55635;50.264;11.918;2023-01-29T09:08:55;96623.06;;;-0.06;63.88
40946;BME280;55635;50.264;11.918;2023-01-29T09:11:37;96620.59;;;-0.35;64.67
40946;BME280;55635;50.264;11.918;2023-01-29T09:14:18;96615.56;;;-0.38;65.66
40946;BME280;55635;50.264;11.918;2023-01-29T09:16:59;96608.44;;;-0.49;65.78
40946;BME280;55635;50.264;11.918;2023-01-29T09:19:40;96599.78;;;-0.49;66.33
40946;BME280;55635;50.264;11.918;2023-01-29T09:22:22;96607.56;;;-0.35;65.15
40946;BME280;55635;50.264;11.918;2023-01-29T09:25:03;96604.00;;;-1.49;68.84
40946;BME280;55635;50.264;11.918;2023-01-29T09:27:44;96596.75;;;-1.74;70.40
40946;BME280;55635;50.264;11.918;2023-01-29T09:30:25;96608.97;;;-0.72;68.41
40946;BME280;55635;50.264;11.918;2023-01-29T09:33:06;96621.69;;;0.30;65.92
40946;BME280;55635;50.264;11.918;2023-01-29T09:35:48;96639.22;;;1.32;62.63
40946;BME280;55635;50.264;11.918;2023-01-29T09:38:29;96643.53;;;1.71;60.51
40946;BME280;55635;50.264;11.918;2023-01-29T09:41:42;96626.25;;;1.81;59.13
40946;BME280;55635;50.264;11.918;2023-01-29T09:45:16;96636.72;;;1.81;59.01
40946;BME280;55635;50.264;11.918;2023-01-29T09:48:02;96634.72;;;1.08;61.11
40946;BME280;55635;50.264;11.918;2023-01-29T09:50:49;96645.75;;;0.87;61.41
40946;BME280;55635;50.264;11.918;2023-01-29T09:53:44;96634.66;;;1.10;62.54
40946;BME280;55635;50.264;11.918;2023-01-29T09:56:27;96631.75;;;0.75;62.12
40946;BME280;55635;50.264;11.918;2023-01-29T09:59:11;96653.56;;;1.64;60.84
40946;BME280;55635;50.264;11.918;2023-01-29T10:02:20;96664.06;;;2.13;61.20
40946;BME280;55635;50.264;11.918;2023-01-29T10:21:27;96618.00;;;-0.49;66.56
40946;BME280;55635;50.264;11.918;2023-01-29T10:24:39;96614.78;;;0.02;65.87
40946;BME280;55635;50.264;11.918;2023-01-29T10:27:26;96592.97;;;-0.52;66.21
40946;BME280;55635;50.264;11.918;2023-01-29T10:30:38;96579.25;;;0.14;64.76
40946;BME280;55635;50.264;11.918;2023-01-29T10:33:32;96555.81;;;-0.27;65.66
40946;BME280;55635;50.264;11.918;2023-01-29T10:36:24;96553.78;;;-0.36;66.61
40946;BME280;55635;50.264;11.918;2023-01-29T10:39:19;96549.16;;;-0.45;66.57
40946;BME280;55635;50.264;11.918;2023-01-29T10:42:35;96557.19;;;0.59;64.91
40946;BME280;55635;50.264;11.918;2023-01-29T10:45:43;96555.53;;;0.83;64.09
40946;BME280;55635;50.264;11.918;2023-01-29T10:55:05;96530.41;;;1.69;61.20
40946;BME280;55635;50.264;11.918;2023-01-29T11:01:33;96533.72;;;1.34;61.54
40946;BME280;55635;50.264;11.918;2023-01-29T11:04:14;96516.38;;;1.46;61.45
40946;BME280;55635;50.264;11.918;2023-01-29T11:06:55;96531.56;;;2.25;60.51
40946;BME280;55635;50.264;11.918;2023-01-29T11:09:47;96523.75;;;2.59;58.40
40946;BME280;55635;50.264;11.918;2023-01-29T11:12:33;96509.53;;;2.51;58.18
40946;BME280;55635;50.264;11.918;2023-01-29T11:15:26;96508.34;;;2.90;56.57
40946;BME280;55635;50.264;11.918;2023-01-29T11:18:13;96489.81;;;3.48;56.87
40946;BME280;55635;50.264;11.918;2023-01-29T11:21:03;96493.38;;;3.25;56.00
40946;BME280;55635;50.264;11.918;2023-01-29T11:23:44;96490.25;;;3.53;55.04
40946;BME280;55635;50.264;11.918;2023-01-29T11:26:26;96464.53;;;3.03;55.80
40946;BME280;55635;50.264;11.918;2023-01-29T11:29:43;96474.50;;;2.75;57.38
40946;BME280;55635;50.264;11.918;2023-01-29T11:32:29;96466.22;;;2.93;57.83
40946;BME280;55635;50.264;11.918;2023-01-29T11:38:16;96457.44;;;1.42;60.47
40946;BME280;55635;50.264;11.918;2023-01-29T11:41:15;96469.81;;;1.02;62.15
40946;BME280;55635;50.264;11.918;2023-01-29T11:44:01;96427.88;;;0.17;64.52
40946;BME280;55635;50.264;11.918;2023-01-29T11:47:26;96442.09;;;0.50;64.37
40946;BME280;55635;50.264;11.918;2023-01-29T11:50:22;96444.13;;;1.08;63.44
40946;BME280;55635;50.264;11.918;2023-01-29T11:53:04;96419.94;;;0.81;63.32
40946;BME280;55635;50.264;11.918;2023-01-29T11:55:47;96449.09;;;-0.02;66.07
40946;BME280;55635;50.264;11.918;2023-01-29T11:58:31;96437.09;;;0.73;64.17
40946;BME280;55635;50.264;11.918;2023-01-29T12:01:17;96451.56;;;0.77;63.45
40946;BME280;55635;50.264;11.918;2023-01-29T12:04:21;96442.13;;;1.25;63.50
40946;BME280;55635;50.264;11.918;2023-01-29T12:07:03;96434.03;;;1.88;61.63
40946;BME280;55635;50.264;11.918;2023-01-29T12:09:54;96413.06;;;2.57;58.82
40946;BME280;55635;50.264;11.918;2023-01-29T12:12:41;96400.25;;;1.74;59.00
40946;BME280;55635;50.264;11.918;2023-01-29T12:15:22;96390.91;;;2.17;59.40
40946;BME280;55635;50.264;11.918;2023-01-29T12:18:45;96402.06;;;2.19;58.39
40946;BME280;55635;50.264;11.918;2023-01-29T12:21:46;96406.66;;;1.81;60.27
40946;BME280;55635;50.264;11.918;2023-01-29T12:24:36;96402.03;;;1.49;59.98
40946;BME280;55635;50.264;11.918;2023-01-29T12:27:59;96406.56;;;0.86;62.32
40946;BME280;55635;50.264;11.918;2023-01-29T12:31:07;96383.84;;;0.63;62.43
40946;BME280;55635;50.264;11.918;2023-01-29T12:36:58;96394.63;;;1.67;60.90
40946;BME280;55635;50.264;11.918;2023-01-29T12:39:42;96380.25;;;1.61;61.06
40946;BME280;55635;50.264;11.918;2023-01-29T12:42:23;96374.06;;;1.97;59.96
40946;BME280;55635;50.264;11.918;2023-01-29T12:45:11;96386.88;;;1.18;61.15
40946;BME280;55635;50.264;11.918;2023-01-29T12:48:01;96378.69;;;1.59;61.51
40946;BME280;55635;50.264;11.918;2023-01-29T12:50:44;96375.41;;;1.68;60.65
40946;BME280;55635;50.264;11.918;2023-01-29T12:53:36;96342.78;;;2.64;59.04
40946;BME280;55635;50.264;11.918;2023-01-29T12:56:30;96362.50;;;1.54;59.28
40946;BME280;55635;50.264;11.918;2023-01-29T13:02:57;96363.78;;;-0.25;65.60
40946;BME280;55635;50.264;11.918;2023-01-29T13:05:50;96365.28;;;0.04;65.94
40946;BME280;55635;50.264;11.918;2023-01-29T13:08:47;96363.41;;;-0.07;65.64
40946;BME280;55635;50.264;11.918;2023-01-29T13:11:42;96377.63;;;0.27;65.30
40946;BME280;55635;50.264;11.918;2023-01-29T13:15:37;96372.81;;;1.32;62.26
40946;BME280;55635;50.264;11.918;2023-01-29T13:21:00;96367.47;;;0.61;62.88
40946;BME280;55635;50.264;11.918;2023-01-29T13:23:54;96348.66;;;1.17;61.72
40946;BME280;55635;50.264;11.918;2023-01-29T13:26:36;96336.41;;;0.20;63.99
40946;BME280;55635;50.264;11.918;2023-01-29T13:29:27;96350.06;;;0.48;63.78
40946;BME280;55635;50.264;11.918;2023-01-29T13:32:09;96338.94;;;-0.56;66.86
40946;BME280;55635;50.264;11.918;2023-01-29T13:35:00;96333.88;;;-0.32;67.98
40946;BME280;55635;50.264;11.918;2023-01-29T13:37:51;96341.00;;;0.41;64.64
40946;BME280;55635;50.264;11.918;2023-01-29T13:40:33;96343.78;;;-0.25;66.25
40946;BME280;55635;50.264;11.918;2023-01-29T13:43:22;96339.94;;;0.19;65.77
40946;BME280;55635;50.264;11.918;2023-01-29T13:46:13;96333.69;;;0.46;64.41
40946;BME280;55635;50.264;11.918;2023-01-29T13:48:54;96336.31;;;0.83;62.65
40946;BME280;55635;50.264;11.918;2023-01-29T13:51:38;96336.41;;;0.58;63.39
40946;BME280;55635;50.264;11.918;2023-01-29T13:54:23;96320.34;;;0.51;62.96
40946;BME280;55635;50.264;11.918;2023-01-29T13:57:08;96347.75;;;0.44;63.95
40946;BME280;55635;50.264;11.918;2023-01-29T14:13:56;96328.91;;;0.03;65.63
40946;BME280;55635;50.264;11.918;2023-01-29T14:16:37;96318.16;;;-0.31;66.72
40946;BME280;55635;50.264;11.918;2023-01-29T14:19:18;96300.41;;;-0.38;65.95
40946;BME280;55635;50.264;11.918;2023-01-29T14:21:59;96312.28;;;-0.47;65.94
40946;BME280;55635;50.264;11.918;2023-01-29T14:24:41;96311.84;;;-0.53;67.25
40946;BME280;55635;50.264;11.918;2023-01-29T14:27:23;96310.50;;;-0.46;67.46
40946;BME280;55635;50.264;11.918;2023-01-29T14:30:07;96311.03;;;-0.41;66.87
40946;BME280;55635;50.264;11.918;2023-01-29T14:32:50;96299.31;;;-0.74;67.75
40946;BME280;55635;50.264;11.918;2023-01-29T14:35:32;96299.22;;;-0.99;68.92
40946;BME280;55635;50.264;11.918;2023-01-29T14:38:14;96300.31;;;-0.89;68.25
40946;BME280;55635;50.264;11.918;2023-01-29T14:41:28;96274.19;;;-1.14;68.92
40946;BME280;55635;50.264;11.918;2023-01-29T14:56:59;96292.66;;;-1.19;70.41
40946;BME280;55635;50.264;11.918;2023-01-29T14:59:58;96278.50;;;-1.27;71.20
40946;BME280;55635;50.264;11.918;2023-01-29T15:02:43;96264.81;;;-1.57;71.51
40946;BME280;55635;50.264;11.918;2023-01-29T15:05:29;96283.09;;;-1.45;71.71
40946;BME280;55635;50.264;11.918;2023-01-29T15:08:37;96262.50;;;-1.48;71.87
40946;BME280;55635;50.264;11.918;2023-01-29T15:11:52;96269.19;;;-1.58;72.28
40946;BME280;55635;50.264;11.918;2023-01-29T15:20:43;96273.69;;;-1.33;72.00
40946;BME280;55635;50.264;11.918;2023-01-29T15:23:33;96261.31;;;-1.56;72.41
40946;BME280;55635;50.264;11.918;2023-01-29T15:26:23;96262.88;;;-1.68;72.85
40946;BME280;55635;50.264;11.918;2023-01-29T15:29:05;96268.72;;;-1.65;72.69
40946;BME280;55635;50.264;11.918;2023-01-29T15:31:46;96263.53;;;-1.65;72.73
40946;BME280;55635;50.264;11.918;2023-01-29T15:34:28;96267.38;;;-1.84;73.06
40946;BME280;55635;50.264;11.918;2023-01-29T15:37:29;96267.84;;;-1.37;71.99
40946;BME280;55635;50.264;11.918;2023-01-29T15:40:15;96276.63;;;-0.98;70.29
40946;BME280;55635;50.264;11.918;2023-01-29T15:42:57;96277.66;;;-0.74;69.01
40946;BME280;55635;50.264;11.918;2023-01-29T15:45:39;96267.09;;;-0.85;69.33
40946;BME280;55635;50.264;11.918;2023-01-29T15:48:36;96273.41;;;-0.63;68.81
40946;BME280;55635;50.264;11.918;2023-01-29T15:51:24;96273.59;;;-0.66;67.87
40946;BME280;55635;50.264;11.918;2023-01-29T15:54:09;96268.63;;;-0.95;69.01
40946;BME280;55635;50.264;11.918;2023-01-29T15:56:53;96275.75;;;-0.72;68.39
40946;BME280;55635;50.264;11.918;2023-01-29T15:59:41;96277.44;;;-0.71;68.76
40946;BME280;55635;50.264;11.918;2023-01-29T16:05:22;96256.72;;;-0.73;68.37
40946;BME280;55635;50.264;11.918;2023-01-29T16:08:05;96256.34;;;-0.93;68.98
40946;BME280;55635;50.264;11.918;2023-01-29T16:10:52;96270.34;;;-0.69;68.16
40946;BME280;55635;50.264;11.918;2023-01-29T16:13:38;96258.59;;;-0.75;68.16
40946;BME280;55635;50.264;11.918;2023-01-29T16:16:24;96265.72;;;-0.91;68.62
40946;BME280;55635;50.264;11.918;2023-01-29T16:19:25;96273.56;;;-0.78;68.78
40946;BME280;55635;50.264;11.918;2023-01-29T16:22:07;96273.13;;;-0.85;68.93
40946;BME280;55635;50.264;11.918;2023-01-29T16:24:49;96276.16;;;-0.78;67.90
40946;BME280;55635;50.264;11.918;2023-01-29T16:27:33;96276.59;;;-0.72;67.13
40946;BME280;55635;50.264;11.918;2023-01-29T16:30:17;96265.44;;;-0.86;68.12
40946;BME280;55635;50.264;11.918;2023-01-29T16:33:09;96267.91;;;-0.85;67.08
40946;BME280;55635;50.264;11.918;2023-01-29T16:35:51;96264.06;;;-0.92;68.49
40946;BME280;55635;50.264;11.918;2023-01-29T16:38:34;96264.66;;;-1.01;68.04
40946;BME280;55635;50.264;11.918;2023-01-29T16:47:13;96273.19;;;-0.99;68.54
40946;BME280;55635;50.264;11.918;2023-01-29T16:55:44;96258.28;;;-1.36;69.78
40946;BME280;55635;50.264;11.918;2023-01-29T16:58:26;96250.03;;;-1.43;69.85
40946;BME280;55635;50.264;11.918;2023-01-29T17:01:10;96253.84;;;-1.48;70.27
40946;BME280;55635;50.264;11.918;2023-01-29T17:04:13;96252.84;;;-1.60;70.01
40946;BME280;55635;50.264;11.918;2023-01-29T17:07:00;96247.75;;;-1.61;69.85